createdAt,value
2022-07-27T00:01:06.072Z,6.58
2022-07-27T00:04:11.763Z,6.37
2022-07-27T00:07:17.353Z,5.80
2022-07-27T00:10:23.618Z,6.72
2022-07-27T00:13:30.083Z,6.67
2022-07-27T00:16:37.030Z,7.67
2022-07-27T00:19:43.434Z,6.97
2022-07-27T00:22:49.785Z,6.17
2022-07-27T00:25:55.587Z,6.92
2022-07-27T00:29:01.495Z,6.67
2022-07-27T00:32:12.340Z,7.15
2022-07-27T00:35:14.748Z,7.20
2022-07-27T00:38:20.444Z,7.65
2022-07-27T00:41:25.818Z,6.92
2022-07-27T00:44:43.351Z,7.08
2022-07-27T00:47:54.568Z,7.25
2022-07-27T00:50:57.905Z,6.70
2022-07-27T00:54:03.748Z,6.95
2022-07-27T00:57:08.831Z,7.40
2022-07-27T01:00:14.137Z,7.78
2022-07-27T01:03:20.654Z,8.50
2022-07-27T01:06:28.374Z,8.48
2022-07-27T01:09:53.131Z,8.25
2022-07-27T01:13:00.289Z,8.83
2022-07-27T01:15:59.960Z,8.50
2022-07-27T01:19:05.459Z,7.95
2022-07-27T01:22:12.565Z,8.25
2022-07-27T01:25:19.333Z,8.00
2022-07-27T01:28:25.048Z,8.28
2022-07-27T01:31:30.570Z,8.15
2022-07-27T01:34:40.031Z,8.70
2022-07-27T01:37:48.106Z,9.63
2022-07-27T01:40:55.147Z,9.20
2022-07-27T01:44:02.071Z,8.70
2022-07-27T01:47:14.604Z,10.20
2022-07-27T01:50:14.891Z,9.90
2022-07-27T01:53:21.651Z,10.13
2022-07-27T01:56:28.325Z,9.98
2022-07-27T01:59:35.987Z,9.90
2022-07-27T02:02:41.950Z,10.98
2022-07-27T02:05:49.121Z,10.20
2022-07-27T02:08:53.833Z,10.30
2022-07-27T02:12:10.541Z,10.28
2022-07-27T02:15:26.465Z,10.75
2022-07-27T02:18:36.890Z,8.95
2022-07-27T02:21:41.374Z,8.60
2022-07-27T02:24:47.842Z,10.78
2022-07-27T02:27:55.031Z,11.28
2022-07-27T02:31:01.009Z,12.07
2022-07-27T02:34:06.727Z,10.90
2022-07-27T02:37:06.871Z,11.25
2022-07-27T02:40:12.515Z,11.25
2022-07-27T02:43:10.649Z,10.53
2022-07-27T02:46:16.092Z,10.75
2022-07-27T02:49:21.104Z,10.85
2022-07-27T02:52:27.259Z,10.15
2022-07-27T02:55:32.761Z,11.03
2022-07-27T02:58:38.605Z,11.03
2022-07-27T03:01:44.512Z,10.75
2022-07-27T03:04:37.246Z,9.80
2022-07-27T03:07:43.195Z,10.45
2022-07-27T03:10:49.815Z,11.88
2022-07-27T03:13:56.146Z,10.82
2022-07-27T03:17:02.178Z,12.40
2022-07-27T03:20:10.657Z,13.75
2022-07-27T03:23:15.922Z,13.60
2022-07-27T03:26:21.266Z,15.03
2022-07-27T03:29:29.332Z,14.55
2022-07-27T03:32:33.814Z,14.83
2022-07-27T03:35:39.033Z,14.15
2022-07-27T03:38:44.241Z,13.62
2022-07-27T03:41:42.680Z,12.78
2022-07-27T03:44:48.192Z,11.73
2022-07-27T03:47:54.417Z,11.80
2022-07-27T03:51:00.072Z,11.57
2022-07-27T03:54:07.118Z,10.55
2022-07-27T03:57:13.229Z,10.32
2022-07-27T04:00:20.972Z,10.70
2022-07-27T04:03:19.890Z,10.90
2022-07-27T04:09:31.936Z,10.88
2022-07-27T04:12:39.188Z,10.78
2022-07-27T04:15:45.578Z,11.05
2022-07-27T04:18:50.958Z,9.68
2022-07-27T04:21:56.753Z,10.35
2022-07-27T04:25:02.641Z,9.75
2022-07-27T04:28:07.806Z,9.90
2022-07-27T04:31:14.512Z,10.13
2022-07-27T04:34:21.476Z,9.68
2022-07-27T04:37:29.163Z,9.30
2022-07-27T04:40:34.815Z,9.10
2022-07-27T04:43:40.750Z,9.73
2022-07-27T04:46:45.361Z,8.40
2022-07-27T04:49:51.060Z,8.90
2022-07-27T04:52:56.523Z,8.15
2022-07-27T04:56:02.214Z,9.30
2022-07-27T04:59:10.073Z,8.58
2022-07-27T05:02:16.413Z,9.20
2022-07-27T05:05:22.773Z,8.70
2022-07-27T05:08:28.963Z,7.75
2022-07-27T05:11:34.019Z,7.40
2022-07-27T05:14:41.134Z,6.95
2022-07-27T05:17:48.607Z,9.40
2022-07-27T05:20:54.015Z,8.88
2022-07-27T05:24:00.499Z,8.73
2022-07-27T05:27:05.731Z,8.38
2022-07-27T05:30:13.183Z,9.30
2022-07-27T05:33:19.813Z,9.53
2022-07-27T05:36:26.463Z,7.03
2022-07-27T05:39:33.120Z,6.65
2022-07-27T05:42:39.561Z,6.72
2022-07-27T05:45:44.962Z,6.55
2022-07-27T05:48:51.584Z,4.70
2022-07-27T05:51:56.524Z,5.45
2022-07-27T05:54:55.960Z,5.90
2022-07-27T05:57:55.581Z,4.87
2022-07-27T06:01:01.381Z,3.37
2022-07-27T06:04:07.984Z,2.98
2022-07-27T06:07:32.024Z,3.27
2022-07-27T06:10:38.603Z,3.40
2022-07-27T06:13:43.638Z,3.17
2022-07-27T06:16:50.748Z,3.27
2022-07-27T06:19:56.549Z,2.60
2022-07-27T06:23:09.571Z,2.85
2022-07-27T06:26:09.496Z,2.80
2022-07-27T06:29:16.185Z,2.58
2022-07-27T06:32:21.537Z,3.00
2022-07-27T06:35:30.402Z,3.40
2022-07-27T06:38:36.748Z,3.02
2022-07-27T06:41:42.174Z,3.33
2022-07-27T06:44:47.081Z,2.95
2022-07-27T06:47:52.659Z,2.92
2022-07-27T06:50:58.886Z,3.20
2022-07-27T06:54:04.546Z,3.20
2022-07-27T06:57:10.379Z,3.10
2022-07-27T07:00:16.138Z,3.22
2022-07-27T07:03:23.220Z,3.72
2022-07-27T07:06:29.697Z,3.87
2022-07-27T07:09:36.463Z,3.37
2022-07-27T07:12:43.236Z,3.55
2022-07-27T07:15:49.447Z,3.33
2022-07-27T07:18:56.154Z,3.25
2022-07-27T07:22:01.648Z,3.02
2022-07-27T07:25:06.967Z,3.33
2022-07-27T07:28:12.996Z,3.20
2022-07-27T07:31:17.925Z,3.83
2022-07-27T07:34:23.977Z,2.90
2022-07-27T07:37:33.679Z,3.62
2022-07-27T07:40:45.308Z,2.83
2022-07-27T07:43:46.234Z,2.92
2022-07-27T07:46:51.382Z,2.77
2022-07-27T07:49:57.271Z,2.77
2022-07-27T07:53:05.113Z,2.67
2022-07-27T07:56:11.240Z,2.40
2022-07-27T07:59:16.619Z,2.75
2022-07-27T08:02:23.232Z,2.52
2022-07-27T08:05:28.978Z,2.22
2022-07-27T08:08:37.064Z,2.37
2022-07-27T08:11:42.404Z,2.52
2022-07-27T08:14:48.346Z,2.08
2022-07-27T08:17:55.114Z,2.55
2022-07-27T08:21:01.860Z,2.27
2022-07-27T08:24:07.351Z,2.12
2022-07-27T08:27:15.283Z,2.35
2022-07-27T08:30:22.065Z,2.67
2022-07-27T08:33:27.680Z,2.27
2022-07-27T08:36:34.749Z,1.92
2022-07-27T08:40:37.237Z,2.60
2022-07-27T08:42:49.233Z,2.70
2022-07-27T08:45:55.755Z,2.35
2022-07-27T08:49:01.323Z,2.83
2022-07-27T08:52:09.478Z,2.42
2022-07-27T08:55:15.222Z,2.47
2022-07-27T08:58:22.545Z,2.60
2022-07-27T09:01:28.724Z,2.17
2022-07-27T09:04:33.896Z,2.47
2022-07-27T09:07:42.927Z,2.20
2022-07-27T09:10:50.117Z,2.45
2022-07-27T09:13:49.240Z,2.62
2022-07-27T09:17:44.129Z,2.10
2022-07-27T09:20:15.697Z,2.40
2022-07-27T09:23:17.697Z,2.40
2022-07-27T09:26:34.562Z,2.55
2022-07-27T09:29:33.665Z,2.45
2022-07-27T09:32:39.370Z,2.00
2022-07-27T09:35:48.008Z,2.02
2022-07-27T09:39:01.730Z,2.20
2022-07-27T09:42:04.912Z,1.97
2022-07-27T09:45:12.398Z,1.85
2022-07-27T09:48:36.022Z,1.80
2022-07-27T09:51:59.618Z,1.77
2022-07-27T09:54:58.914Z,2.17
2022-07-27T09:58:15.398Z,1.80
2022-07-27T10:01:15.309Z,1.80
2022-07-27T10:04:21.846Z,1.70
2022-07-27T10:07:29.439Z,1.57
2022-07-27T10:10:35.920Z,1.82
2022-07-27T10:13:43.743Z,1.30
2022-07-27T10:16:50.218Z,1.70
2022-07-27T10:20:02.436Z,1.70
2022-07-27T10:23:14.207Z,1.52
2022-07-27T10:26:42.016Z,1.67
2022-07-27T10:29:46.956Z,1.85
2022-07-27T10:32:53.810Z,1.92
2022-07-27T10:35:59.532Z,1.95
2022-07-27T10:39:07.333Z,1.50
2022-07-27T10:42:36.716Z,1.57
2022-07-27T10:48:53.236Z,1.70
2022-07-27T10:51:59.856Z,1.50
2022-07-27T10:55:06.817Z,1.55
2022-07-27T10:58:35.553Z,1.75
2022-07-27T11:01:42.459Z,1.50
2022-07-27T11:04:48.011Z,1.70
2022-07-27T11:08:34.937Z,1.70
2022-07-27T11:11:03.395Z,1.42
2022-07-27T11:14:11.843Z,1.60
2022-07-27T11:20:31.276Z,1.42
2022-07-27T11:23:50.873Z,1.30
2022-07-27T11:26:48.253Z,1.42
2022-07-27T11:29:53.950Z,1.67
2022-07-27T11:33:00.424Z,1.37
2022-07-27T11:36:11.236Z,1.60
2022-07-27T11:39:28.554Z,1.17
2022-07-27T11:42:24.183Z,1.30
2022-07-27T11:45:45.805Z,1.85
2022-07-27T11:49:09.506Z,1.20
2022-07-27T11:52:02.451Z,1.20
2022-07-27T11:55:07.742Z,1.70
2022-07-27T11:58:21.437Z,1.57
2022-07-27T12:01:29.262Z,1.20
2022-07-27T12:04:49.260Z,1.30
2022-07-27T12:07:54.744Z,1.30
2022-07-27T12:11:14.257Z,1.52
2022-07-27T12:17:42.157Z,1.30
2022-07-27T12:20:48.643Z,1.37
2022-07-27T12:24:05.989Z,1.30
2022-07-27T12:27:24.178Z,1.20
2022-07-27T12:30:28.951Z,1.32
2022-07-27T12:33:53.610Z,1.40
2022-07-27T12:36:58.174Z,1.20
2022-07-27T12:40:03.873Z,1.30
2022-07-27T12:43:18.519Z,1.30
2022-07-27T12:46:28.054Z,1.40
2022-07-27T12:49:33.161Z,1.50
2022-07-27T12:52:38.281Z,1.50
2022-07-27T12:55:43.474Z,1.30
2022-07-27T12:58:49.047Z,1.47
2022-07-27T13:01:58.527Z,1.17
2022-07-27T13:05:03.893Z,1.20
2022-07-27T13:08:11.881Z,1.30
2022-07-27T13:11:21.291Z,1.37
2022-07-27T13:14:21.201Z,1.07
2022-07-27T13:17:27.429Z,1.10
2022-07-27T13:20:33.481Z,1.32
2022-07-27T13:23:39.631Z,1.20
2022-07-27T13:26:45.038Z,1.42
2022-07-27T13:29:50.715Z,1.40
2022-07-27T13:32:55.975Z,1.72
2022-07-27T13:36:02.617Z,1.40
2022-07-27T13:39:08.249Z,1.35
2022-07-27T13:42:15.523Z,1.50
2022-07-27T13:45:21.933Z,1.57
2022-07-27T13:48:28.554Z,1.70
2022-07-27T13:51:33.654Z,1.87
2022-07-27T13:54:39.463Z,1.57
2022-07-27T13:57:45.000Z,1.45
2022-07-27T14:00:51.840Z,1.52
2022-07-27T14:03:57.694Z,1.60
2022-07-27T14:07:03.156Z,1.45
2022-07-27T14:10:26.751Z,1.65
2022-07-27T14:13:36.718Z,1.27
2022-07-27T14:16:44.503Z,1.55
2022-07-27T14:19:53.229Z,1.82
2022-07-27T14:22:59.380Z,1.75
2022-07-27T14:26:05.129Z,1.30
2022-07-27T14:29:10.901Z,1.52
2022-07-27T14:32:17.565Z,1.25
2022-07-27T14:35:24.022Z,1.40
2022-07-27T14:38:31.200Z,1.55
2022-07-27T14:41:43.949Z,1.65
2022-07-27T14:44:44.297Z,2.08
2022-07-27T14:47:50.240Z,2.25
2022-07-27T14:50:56.922Z,2.02
2022-07-27T14:54:03.089Z,1.80
2022-07-27T14:57:08.699Z,1.65
2022-07-27T15:00:16.474Z,1.80
2022-07-27T15:03:21.847Z,1.95
2022-07-27T15:06:27.327Z,1.85
2022-07-27T15:09:33.122Z,2.20
2022-07-27T15:12:39.301Z,1.50
2022-07-27T15:15:46.550Z,1.40
2022-07-27T15:18:53.105Z,1.82
2022-07-27T15:21:59.233Z,1.50
2022-07-27T15:25:05.630Z,1.85
2022-07-27T15:28:05.059Z,1.90
2022-07-27T15:31:11.095Z,1.82
2022-07-27T15:34:16.048Z,2.10
2022-07-27T15:37:21.446Z,1.80
2022-07-27T15:40:46.192Z,2.35
2022-07-27T15:43:52.006Z,2.75
2022-07-27T15:46:57.810Z,2.55
2022-07-27T15:50:03.979Z,2.90
2022-07-27T15:53:10.320Z,3.00
2022-07-27T15:56:16.902Z,3.08
2022-07-27T15:59:23.096Z,3.00
2022-07-27T16:02:32.912Z,2.60
2022-07-27T16:05:40.390Z,2.37
2022-07-27T16:08:46.148Z,2.40
2022-07-27T16:11:52.631Z,2.02
2022-07-27T16:15:00.842Z,2.20
2022-07-27T16:18:06.178Z,2.20
2022-07-27T16:21:11.935Z,1.80
2022-07-27T16:24:17.311Z,2.40
2022-07-27T16:27:23.769Z,2.62
2022-07-27T16:30:33.968Z,2.15
2022-07-27T16:33:38.530Z,2.35
2022-07-27T16:36:44.293Z,1.90
2022-07-27T16:39:51.667Z,1.95
2022-07-27T16:42:59.527Z,1.92
2022-07-27T16:46:07.113Z,1.90
2022-07-27T16:49:13.149Z,2.45
2022-07-27T16:52:20.459Z,3.02
2022-07-27T16:55:27.569Z,2.20
2022-07-27T16:58:33.640Z,3.45
2022-07-27T17:01:39.405Z,3.35
2022-07-27T17:04:45.458Z,2.70
2022-07-27T17:07:50.770Z,2.98
2022-07-27T17:10:56.293Z,3.33
2022-07-27T17:14:05.027Z,2.67
2022-07-27T17:17:12.656Z,3.30
2022-07-27T17:20:28.052Z,3.95
2022-07-27T17:26:28.991Z,3.08
2022-07-27T17:29:35.455Z,2.83
2022-07-27T17:32:41.371Z,2.65
2022-07-27T17:35:47.911Z,2.33
2022-07-27T17:38:54.211Z,3.05
2022-07-27T17:41:53.217Z,2.40
2022-07-27T17:45:00.295Z,2.77
2022-07-27T17:48:06.654Z,3.17
2022-07-27T17:51:12.751Z,2.35
2022-07-27T17:54:18.259Z,2.60
2022-07-27T17:57:24.227Z,2.77
2022-07-27T18:00:31.166Z,3.05
2022-07-27T18:03:36.749Z,3.87
2022-07-27T18:06:42.802Z,2.77
2022-07-27T18:09:47.804Z,2.62
2022-07-27T18:12:54.636Z,2.72
2022-07-27T18:16:01.461Z,2.83
2022-07-27T18:19:09.866Z,2.90
2022-07-27T18:22:15.589Z,3.40
2022-07-27T18:25:22.350Z,3.52
2022-07-27T18:28:27.659Z,3.22
2022-07-27T18:31:34.172Z,2.70
2022-07-27T18:34:39.577Z,2.70
2022-07-27T18:37:44.770Z,2.98
2022-07-27T18:40:52.733Z,3.70
2022-07-27T18:44:01.123Z,4.75
2022-07-27T18:47:07.025Z,3.20
2022-07-27T18:50:11.897Z,4.10
2022-07-27T18:53:17.722Z,5.20
2022-07-27T18:56:23.230Z,5.35
2022-07-27T18:59:29.241Z,5.00
2022-07-27T19:02:39.076Z,4.53
2022-07-27T19:05:41.998Z,4.65
2022-07-27T19:08:48.216Z,4.17
2022-07-27T19:11:54.443Z,4.80
2022-07-27T19:15:00.635Z,4.37
2022-07-27T19:18:05.898Z,4.25
2022-07-27T19:21:12.082Z,4.10
2022-07-27T19:24:18.533Z,5.25
2022-07-27T19:27:23.986Z,4.62
2022-07-27T19:30:30.059Z,4.30
2022-07-27T19:33:37.242Z,4.17
2022-07-27T19:36:42.678Z,3.95
2022-07-27T19:39:57.502Z,4.00
2022-07-27T19:42:55.593Z,6.05
2022-07-27T19:46:00.965Z,5.03
2022-07-27T19:49:06.905Z,5.22
2022-07-27T19:52:13.223Z,4.42
2022-07-27T19:55:18.006Z,4.62
2022-07-27T19:58:25.032Z,4.90
2022-07-27T20:01:30.248Z,5.30
2022-07-27T20:04:37.278Z,4.83
2022-07-27T20:07:41.504Z,5.17
2022-07-27T20:10:47.629Z,5.05
2022-07-27T20:13:55.323Z,4.83
2022-07-27T20:17:01.457Z,5.30
2022-07-27T20:20:07.743Z,4.67
2022-07-27T20:23:14.319Z,5.05
2022-07-27T20:26:21.428Z,4.70
2022-07-27T20:29:28.007Z,5.70
2022-07-27T20:32:35.560Z,5.42
2022-07-27T20:35:42.971Z,5.72
2022-07-27T20:38:48.717Z,4.95
2022-07-27T20:41:54.100Z,5.35
2022-07-27T20:45:00.189Z,5.42
2022-07-27T20:48:06.506Z,5.72
2022-07-27T20:51:12.056Z,4.92
2022-07-27T20:54:18.003Z,5.60
2022-07-27T20:57:25.750Z,5.05
2022-07-27T21:00:32.655Z,4.83
2022-07-27T21:03:38.947Z,4.78
2022-07-27T21:06:44.062Z,5.03
2022-07-27T21:09:51.020Z,4.53
2022-07-27T21:12:55.967Z,4.37
2022-07-27T21:16:02.203Z,4.75
2022-07-27T21:19:08.305Z,4.55
2022-07-27T21:22:15.430Z,4.90
2022-07-27T21:25:22.908Z,5.75
2022-07-27T21:28:29.685Z,5.00
2022-07-27T21:31:37.165Z,4.33
2022-07-27T21:34:43.235Z,5.30
2022-07-27T21:37:51.081Z,5.50
2022-07-27T21:40:56.995Z,5.50
2022-07-27T21:44:02.562Z,6.10
2022-07-27T21:47:13.492Z,5.97
2022-07-27T21:50:15.205Z,7.15
2022-07-27T21:53:21.149Z,6.90
2022-07-27T21:56:27.536Z,9.35
2022-07-27T21:59:32.368Z,16.82
2022-07-27T22:02:38.214Z,20.60
2022-07-27T22:05:43.640Z,21.17
2022-07-27T22:08:50.614Z,18.98
2022-07-27T22:11:56.780Z,20.35
2022-07-27T22:15:02.020Z,19.05
2022-07-27T22:18:07.416Z,17.52
2022-07-27T22:21:16.126Z,14.40
2022-07-27T22:24:22.790Z,14.63
2022-07-27T22:27:30.147Z,17.32
2022-07-27T22:30:36.581Z,15.85
2022-07-27T22:33:44.413Z,15.58
2022-07-27T22:36:48.921Z,17.98
2022-07-27T22:39:55.181Z,17.65
2022-07-27T22:43:02.246Z,19.48
2022-07-27T22:46:07.734Z,19.12
2022-07-27T22:49:14.367Z,18.37
2022-07-27T22:52:20.470Z,18.48
2022-07-27T22:55:26.097Z,17.27
2022-07-27T22:58:32.690Z,17.15
2022-07-27T23:01:46.590Z,14.70
2022-07-27T23:04:46.014Z,14.63
2022-07-27T23:07:50.798Z,14.28
2022-07-27T23:10:57.557Z,12.95
2022-07-27T23:14:05.292Z,11.43
2022-07-27T23:17:10.753Z,11.33
2022-07-27T23:20:19.544Z,11.38
2022-07-27T23:23:27.642Z,11.25
2022-07-27T23:26:33.179Z,10.00
2022-07-27T23:29:39.600Z,10.18
2022-07-27T23:32:46.497Z,10.58
2022-07-27T23:35:51.413Z,11.50
2022-07-27T23:38:57.218Z,12.07
2022-07-27T23:42:02.401Z,13.80
2022-07-27T23:45:08.661Z,17.10
2022-07-27T23:48:13.334Z,18.80
2022-07-27T23:51:19.272Z,18.50
2022-07-27T23:54:25.469Z,20.50
2022-07-27T23:57:30.503Z,23.02
